地図

経路データ

SID SEASON NUMBER BASIN SUBBASIN NAME ISO_TIME NATURE LAT LON WMO_WIND WMO_PRES WMO_AGENCY TRACK_TYPE DIST2LAND LANDFALL IFLAG USA_AGENCY USA_ATCF_ID USA_LAT USA_LON USA_RECORD USA_STATUS USA_WIND USA_PRES USA_SSHS USA_R34_NE USA_R34_SE USA_R34_SW USA_R34_NW USA_R50_NE USA_R50_SE USA_R50_SW USA_R50_NW USA_R64_NE USA_R64_SE USA_R64_SW USA_R64_NW USA_POCI USA_ROCI USA_RMW USA_EYE TOKYO_LAT TOKYO_LON TOKYO_GRADE TOKYO_WIND TOKYO_PRES TOKYO_R50_DIR TOKYO_R50_LONG TOKYO_R50_SHORT TOKYO_R30_DIR TOKYO_R30_LONG TOKYO_R30_SHORT TOKYO_LAND CMA_LAT CMA_LON CMA_CAT CMA_WIND CMA_PRES HKO_LAT HKO_LON HKO_CAT HKO_WIND HKO_PRES NEWDELHI_LAT NEWDELHI_LON NEWDELHI_GRADE NEWDELHI_WIND NEWDELHI_PRES NEWDELHI_CI NEWDELHI_DP NEWDELHI_POCI REUNION_LAT REUNION_LON REUNION_TYPE REUNION_WIND REUNION_PRES REUNION_TNUM REUNION_CI REUNION_RMW REUNION_R34_NE REUNION_R34_SE REUNION_R34_SW REUNION_R34_NW REUNION_R50_NE REUNION_R50_SE REUNION_R50_SW REUNION_R50_NW REUNION_R64_NE REUNION_R64_SE REUNION_R64_SW REUNION_R64_NW BOM_LAT BOM_LON BOM_TYPE BOM_WIND BOM_PRES BOM_TNUM BOM_CI BOM_RMW BOM_R34_NE BOM_R34_SE BOM_R34_SW BOM_R34_NW BOM_R50_NE BOM_R50_SE BOM_R50_SW BOM_R50_NW BOM_R64_NE BOM_R64_SE BOM_R64_SW BOM_R64_NW BOM_ROCI BOM_POCI BOM_EYE BOM_POS_METHOD BOM_PRES_METHOD NADI_LAT NADI_LON NADI_CAT NADI_WIND NADI_PRES WELLINGTON_LAT WELLINGTON_LON WELLINGTON_WIND WELLINGTON_PRES DS824_LAT DS824_LON DS824_STAGE DS824_WIND DS824_PRES TD9636_LAT TD9636_LON TD9636_STAGE TD9636_WIND TD9636_PRES TD9635_LAT TD9635_LON TD9635_WIND TD9635_PRES TD9635_ROCI NEUMANN_LAT NEUMANN_LON NEUMANN_CLASS NEUMANN_WIND NEUMANN_PRES MLC_LAT MLC_LON MLC_CLASS MLC_WIND MLC_PRES USA_GUST BOM_GUST BOM_GUST_PER REUNION_GUST REUNION_GUST_PER USA_SEAHGT USA_SEARAD_NE USA_SEARAD_SE USA_SEARAD_SW USA_SEARAD_NW STORM_SPEED STORM_DIR
1962057S17164 1962 28 SP MM NOT_NAMED 1962-02-26 00:00:00 TS -17.2000 163.600 main 339 279 O________OO_O_ jtwc_sh SH211962 -17.2000 163.600 -1 -17.2000 163.600 TC 35 -17.2000 163.600 2 -17.2000 163.600 TC 35 17 128
1962057S17164 1962 28 SP MM NOT_NAMED 1962-02-26 03:00:00 TS -17.7102 164.287 main 280 238 P________PP_P_ SH211962 -17.7131 164.317 -1 -17.7131 164.317 TC 35 -17.7019 164.268 2 -17.7129 164.244 TC 35 16 128
1962057S17164 1962 28 SP MM NOT_NAMED 1962-02-26 06:00:00 TS -18.1955 164.958 main 240 217 O________OP_O_ jtwc_sh SH211962 -18.2000 165.000 -1 -18.2000 165.000 TC 35 -18.1822 164.931 2 -18.2000 164.900 TC 35 16 127
1962057S17164 1962 28 SP MM NOT_NAMED 1962-02-26 09:00:00 TS -18.6333 165.597 main 222 212 P________PP_P_ SH211962 -18.6372 165.623 -1 -18.6372 165.623 TC 35 -18.6213 165.578 2 -18.6374 165.565 TC 35 14 124
1962057S17164 1962 28 SP MM NOT_NAMED 1962-02-26 12:00:00 TS -19.0000 166.200 main 226 222 O________OO_O_ jtwc_sh SH211962 -19.0000 166.200 -1 -19.0000 166.200 TC 35 -19.0000 166.200 2 -19.0000 166.200 TC 35 13 120
1962057S17164 1962 28 SP MM NOT_NAMED 1962-02-26 15:00:00 TS -19.2808 166.767 main 236 236 P________PP_P_ SH211962 -19.2723 166.758 -1 -19.2723 166.758 TC 35 -19.3067 166.788 2 -19.2722 166.765 TC 35 12 116
1962057S17164 1962 28 SP MM NOT_NAMED 1962-02-26 18:00:00 TS -19.5147 167.312 main 256 251 O________OP_O_ jtwc_sh SH211962 -19.5000 167.300 -1 -19.5000 167.300 TC 35 -19.5590 167.347 2 -19.5000 167.300 TC 35 11 115
1962057S17164 1962 28 SP MM NOT_NAMED 1962-02-26 21:00:00 TS -19.7579 167.864 main 263 263 P________PP_P_ SH211962 -19.7499 167.858 -1 -19.7499 167.858 TC 35 -19.7818 167.882 2 -19.7499 167.858 TC 35 11 115
1962057S17164 1962 28 SP MM NOT_NAMED 1962-02-27 00:00:00 TS -20.0000 168.400 main 281 278 O________OO_O_ jtwc_sh SH211962 -20.0000 168.400 -1 -20.0000 168.400 TC 35 -20.0000 168.400 2 -20.0000 168.400 TC 35 11 116
1962057S17164 1962 28 SP MM NOT_NAMED 1962-02-27 03:00:00 TS -20.2487 168.914 main 296 288 P________PP_P_ SH211962 -20.2498 168.908 -1 -20.2498 168.908 TC 35 -20.2456 168.931 2 -20.2498 168.908 TC 37 11 118
1962057S17164 1962 28 SP MM NOT_NAMED 1962-02-27 06:00:00 TS -20.4980 169.411 main 312 312 O________OP_O_ jtwc_sh SH211962 -20.5000 169.400 -1 -20.5000 169.400 TC 35 -20.4921 169.446 2 -20.5000 169.400 TC 40 11 118
1962057S17164 1962 28 SP MM NOT_NAMED 1962-02-27 09:00:00 TS -20.7481 169.921 main 343 338 P________PP_P_ SH211962 -20.7500 169.915 -1 -20.7500 169.915 TC 35 -20.7426 169.937 2 -20.7500 169.915 TC 40 11 118
1962057S17164 1962 28 SP MM NOT_NAMED 1962-02-27 12:00:00 TS -21.0000 170.400 main 376 376 O________OO_O_ jtwc_sh SH211962 -21.0000 170.400 -1 -21.0000 170.400 TC 35 -21.0000 170.400 2 -21.0000 170.400 TC 40 10 121
1962057S17164 1962 28 SP MM NOT_NAMED 1962-02-27 15:00:00 TS -21.2454 170.816 main 408 405 P________PP_P_ SH211962 -21.2423 170.815 -1 -21.2423 170.815 TC 35 -21.2548 170.818 2 -21.2423 170.815 TC 42 9 124
1962057S17164 1962 28 SP MM NOT_NAMED 1962-02-27 18:00:00 TS -21.5047 171.202 main 440 440 O________OP_O_ jtwc_sh SH211962 -21.5000 171.200 -1 -21.5000 171.200 TC 35 -21.5188 171.209 2 -21.5000 171.200 TC 45 9 127
1962057S17164 1962 28 SP MM NOT_NAMED 1962-02-27 21:00:00 TS -21.7883 171.592 main 476 476 P________PP_P_ SH211962 -21.7848 171.593 -1 -21.7848 171.593 TC 35 -21.7985 171.596 2 -21.7848 171.585 TC 45 10 129
1962057S17164 1962 28 SP MM NOT_NAMED 1962-02-28 00:00:00 TS -22.1000 172.000 main 514 514 O________OO_O_ jtwc_sh SH211962 -22.1000 172.000 -1 -22.1000 172.000 TC 35 -22.1000 172.000 2 -22.1000 172.000 TC 45 10 129
1962057S17164 1962 28 SP MM NOT_NAMED 1962-02-28 03:00:00 TS -22.4350 172.464 main 565 565 P________PP_P_ SH211962 -22.4424 172.435 -1 -22.4424 172.435 TC 35 -22.4128 172.494 2 -22.4425 172.493 TC 45 11 128
1962057S17164 1962 28 SP MM NOT_NAMED 1962-02-28 06:00:00 TS -22.7871 172.950 main 618 618 O________OP_O_ jtwc_sh SH211962 -22.8000 172.900 -1 -22.8000 172.900 TC 35 -22.7484 173.002 2 -22.8000 173.000 TC 45 12 128
1962057S17164 1962 28 SP MM NOT_NAMED 1962-02-28 09:00:00 TS -23.1344 173.452 main 672 672 P________PP_P_ SH211962 -23.1427 173.423 -1 -23.1427 173.423 TC 35 -23.1097 173.484 2 -23.1425 173.480 TC 47 11 129
1962057S17164 1962 28 SP MM NOT_NAMED 1962-02-28 12:00:00 TS -23.5000 173.900 main 699 699 O________OO_O_ jtwc_sh SH211962 -23.5000 173.900 -1 -23.5000 173.900 TC 35 -23.5000 173.900 2 -23.5000 173.900 TC 50 10 135
1962057S17164 1962 28 SP MM NOT_NAMED 1962-02-28 15:00:00 TS -23.8730 174.248 main 723 719 P________PP_P_ SH211962 -23.8773 174.253 -1 -23.8773 174.253 TC 35 -23.8598 174.242 2 -23.8774 174.245 TC 47 10 145
1962057S17164 1962 28 SP MM NOT_NAMED 1962-02-28 18:00:00 TS -24.2892 174.502 main 751 751 O________OP_O_ jtwc_sh SH211962 -24.3000 174.500 -1 -24.3000 174.500 TC 35 -24.2570 174.507 2 -24.3000 174.500 TC 45 10 155
1962057S17164 1962 28 SP MM NOT_NAMED 1962-02-28 21:00:00 TS -24.7345 174.693 main 785 785 P________PP_P_ SH211962 -24.7400 174.695 -1 -24.7400 174.695 TC 35 -24.7257 174.694 2 -24.7324 174.688 TC 45 11 165
1962057S17164 1962 28 SP MM NOT_NAMED 1962-03-01 00:00:00 TS -25.3000 174.800 main 844 844 O________OO_O_ jtwc_sh SH211962 -25.3000 174.800 -1 -25.3000 174.800 TC 35 -25.3000 174.800 2 -25.3000 174.800 TC 45 13 173
1962057S17164 1962 28 SP MM NOT_NAMED 1962-03-01 03:00:00 TS -26.0592 174.863 main 906 865 P________PP_P_ SH211962 -26.0475 174.837 -1 -26.0475 174.837 TC 35 -26.0370 174.881 2 -26.1050 174.895 TC 42 16 178
1962057S17164 1962 28 SP MM NOT_NAMED 1962-03-01 06:00:00 TS -26.9186 174.845 main 865 777 O________OP_O_ jtwc_sh SH211962 -26.9000 174.800 -1 -26.9000 174.800 TC 35 -26.8743 174.878 2 -27.0000 174.900 TC 40 17 183
1962057S17164 1962 28 SP MM NOT_NAMED 1962-03-01 09:00:00 TS -27.7773 174.766 main 766 675 P________PP_P_ SH211962 -27.7724 174.737 -1 -27.7724 174.737 TC 35 -27.7495 174.786 2 -27.8149 174.802 TC 37 17 187
1962057S17164 1962 28 SP MM NOT_NAMED 1962-03-01 12:00:00 TS -28.6000 174.600 main 675 594 O________OO_O_ jtwc_sh SH211962 -28.6000 174.600 -1 -28.6000 174.600 TC 35 -28.6000 174.600 2 -28.6000 174.600 TC 35 16 192
1962057S17164 1962 28 SP MM NOT_NAMED 1962-03-01 15:00:00 TS -29.2940 174.385 main 594 523 P________PP_P_ SH211962 -29.2647 174.409 -1 -29.2647 174.409 TC 35 -29.2741 174.378 2 -29.3724 174.345 TC 35 14 199
1962057S17164 1962 28 SP MM NOT_NAMED 1962-03-01 18:00:00 TS -29.9558 174.065 main 512 439 O________OP_O_ jtwc_sh SH211962 -29.9000 174.100 -1 -29.9000 174.100 TC 35 -29.9233 174.058 2 -30.1000 174.000 TC 35 15 206
1962057S17164 1962 28 SP MM NOT_NAMED 1962-03-01 21:00:00 TS -30.6218 173.649 main 438 345 P________PP_P_ SH211962 -30.5897 173.673 -1 -30.5897 173.673 TC 35 -30.6109 173.634 2 -30.6970 173.615 TC 35 17 210
1962057S17164 1962 28 SP MM NOT_NAMED 1962-03-02 00:00:00 TS -31.4000 173.100 main 345 245 O________OO_O_ jtwc_sh SH211962 -31.4000 173.100 -1 -31.4000 173.100 TC 35 -31.4000 173.100 2 -31.4000 173.100 TC 35 21 211
1962057S17164 1962 28 SP MM NOT_NAMED 1962-03-02 03:00:00 TS -32.4032 172.408 main 234 138 P________PP_P_ SH211962 -32.3976 172.395 -1 -32.3976 172.395 TC 35 -32.3772 172.440 2 -32.4402 172.403 TC 35 25 211
1962057S17164 1962 28 SP MM NOT_NAMED 1962-03-02 06:00:00 TS -33.5138 171.617 main 144 131 O________OP_O_ jtwc_sh SH211962 -33.5000 171.600 -1 -33.5000 171.600 TC 35 -33.4553 171.668 2 -33.6000 171.600 TC 35 26 211
1962057S17164 1962 28 SP MM NOT_NAMED 1962-03-02 09:00:00 TS -34.6093 170.808 main 164 164 P________PP_P_ SH211962 -34.5998 170.799 -1 -34.5998 170.799 TC 35 -34.5804 170.835 2 -34.6572 170.798 TC 35 26 211
1962057S17164 1962 28 SP MM NOT_NAMED 1962-03-02 12:00:00 TS -35.7000 170.000 main 271 271 O________OO_O_ jtwc_sh SH211962 -35.7000 170.000 -1 -35.7000 170.000 TC 35 -35.7000 170.000 2 -35.7000 170.000 TC 35 25 211
1962057S17164 1962 28 SP MM NOT_NAMED 1962-03-02 15:00:00 TS -36.7650 169.233 main 395 395 P________PP_P_ SH211962 -36.7643 169.240 -1 -36.7643 169.240 TC 35 -36.7745 169.209 2 -36.7569 169.240 TC 35 24 210
1962057S17164 1962 28 SP MM NOT_NAMED 1962-03-02 18:00:00 TS -37.8018 168.490 main 462 434 O________OP_O_ jtwc_sh SH211962 -37.8000 168.500 -1 -37.8000 168.500 TC 35 -37.8074 168.459 2 -37.8000 168.500 TC 35 24 210
1962057S17164 1962 28 SP MM NOT_NAMED 1962-03-02 21:00:00 TS -38.8100 167.750 main 441 433 P________PP_P_ SH211962 -38.8085 167.757 -1 -38.8085 167.757 TC 35 -38.8119 167.729 2 -38.8110 167.757 TC 35 23 210
1962057S17164 1962 28 SP MM NOT_NAMED 1962-03-03 00:00:00 TS -39.8000 167.000 main 438 O________OO_O_ jtwc_sh SH211962 -39.8000 167.000 -1 -39.8000 167.000 TC 35 -39.8000 167.000 2 -39.8000 167.000 TC 35 23 210

デジタル台風データ・検索

IBTrACS Databaseについて

本データベースは、米国NOAAが公開する1842年以降の世界の熱帯低気圧のベストトラックデータアーカイブInternational Best Track Archive for Climate Stewardship (IBTrACS)を、ウェブで閲覧しやすい形式に変換したものです。

最終更新日:2021-10-21